createdAt,value
2023-02-27T00:03:41.503Z,28.90
2023-02-27T00:08:44.576Z,29.10
2023-02-27T00:13:47.458Z,29.10
2023-02-27T00:18:51.629Z,28.80
2023-02-27T00:23:55.358Z,29.00
2023-02-27T00:28:58.177Z,29.20
2023-02-27T00:34:02.368Z,29.70
2023-02-27T00:39:05.270Z,28.90
2023-02-27T00:44:08.114Z,28.90
2023-02-27T00:49:12.269Z,28.90
2023-02-27T00:54:15.111Z,28.90
2023-02-27T00:59:18.017Z,28.80
2023-02-27T01:04:22.542Z,28.90
2023-02-27T01:09:25.957Z,29.00
2023-02-27T01:14:29.125Z,29.10
2023-02-27T01:19:33.552Z,29.20
2023-02-27T01:24:36.546Z,29.10
2023-02-27T01:29:39.427Z,29.10
2023-02-27T01:34:43.603Z,29.40
2023-02-27T01:39:46.435Z,28.80
2023-02-27T01:45:34.451Z,28.70
2023-02-27T01:50:42.966Z,29.00
2023-02-27T01:55:47.539Z,28.90
2023-02-27T02:00:50.508Z,29.10
2023-02-27T02:05:57.997Z,28.70
2023-02-27T02:11:01.619Z,28.70
2023-02-27T02:16:21.513Z,28.80
2023-02-27T02:22:07.966Z,28.70
2023-02-27T02:27:26.480Z,28.60
2023-02-27T02:32:53.877Z,28.60
2023-02-27T02:38:32.966Z,28.70
2023-02-27T02:43:48.349Z,28.70
2023-02-27T02:49:00.163Z,28.70
2023-02-27T02:54:11.101Z,28.70
2023-02-27T02:59:20.901Z,28.60
2023-02-27T03:04:31.321Z,28.60
2023-02-27T03:09:39.563Z,28.40
2023-02-27T03:14:48.537Z,28.30
2023-02-27T03:19:56.088Z,28.30
2023-02-27T03:25:03.348Z,28.50
2023-02-27T03:30:10.312Z,28.50
2023-02-27T03:35:13.929Z,28.60
2023-02-27T03:40:27.376Z,28.70
2023-02-27T03:45:37.423Z,28.50
2023-02-27T03:50:40.467Z,28.30
2023-02-27T03:55:48.548Z,28.20
2023-02-27T04:00:51.454Z,28.20
2023-02-27T04:05:54.583Z,28.30
2023-02-27T04:11:20.357Z,28.30
2023-02-27T04:16:51.539Z,28.20
2023-02-27T04:22:05.935Z,28.20
2023-02-27T04:27:21.643Z,28.40
2023-02-27T04:32:32.714Z,28.30
2023-02-27T04:37:45.131Z,28.60
2023-02-27T04:42:54.920Z,28.10
2023-02-27T04:48:02.472Z,28.10
2023-02-27T04:53:11.716Z,28.20
2023-02-27T04:58:21.813Z,28.10
2023-02-27T05:03:28.126Z,28.10
2023-02-27T05:08:37.404Z,28.30
2023-02-27T05:13:46.845Z,28.30
2023-02-27T05:18:51.237Z,28.20
2023-02-27T05:24:07.581Z,28.10
2023-02-27T05:29:20.442Z,28.10
2023-02-27T05:34:28.160Z,28.00
2023-02-27T05:39:34.194Z,28.00
2023-02-27T05:44:43.067Z,27.90
2023-02-27T05:49:52.435Z,27.90
2023-02-27T05:55:01.723Z,27.80
2023-02-27T06:00:11.897Z,27.80
2023-02-27T06:05:16.079Z,27.70
2023-02-27T06:10:21.282Z,27.80
2023-02-27T06:15:25.459Z,27.90
2023-02-27T06:20:28.458Z,27.90
2023-02-27T06:25:31.641Z,27.90
2023-02-27T06:30:36.415Z,27.80
2023-02-27T06:35:39.600Z,27.80
2023-02-27T06:40:42.594Z,27.70
2023-02-27T06:45:46.808Z,27.60
2023-02-27T06:50:53.202Z,27.60
2023-02-27T06:55:56.030Z,27.60
2023-02-27T07:01:01.275Z,27.00
2023-02-27T07:06:04.506Z,27.50
2023-02-27T07:11:07.344Z,27.60
2023-02-27T07:16:11.597Z,27.70
2023-02-27T07:21:15.248Z,27.70
2023-02-27T07:26:18.676Z,27.70
2023-02-27T07:31:22.961Z,27.80
2023-02-27T07:36:26.754Z,27.70
2023-02-27T07:41:31.058Z,26.90
2023-02-27T07:46:35.862Z,27.50
2023-02-27T07:51:38.713Z,27.40
2023-02-27T07:56:41.552Z,27.40
2023-02-27T08:01:45.723Z,27.40
2023-02-27T08:06:48.631Z,27.40
2023-02-27T08:11:51.528Z,27.50
2023-02-27T08:16:55.670Z,27.40
2023-02-27T08:21:58.502Z,27.50
2023-02-27T08:27:01.416Z,27.50
2023-02-27T08:32:05.816Z,27.50
2023-02-27T08:37:08.842Z,27.80
2023-02-27T08:42:11.869Z,27.80
2023-02-27T08:47:16.060Z,27.80
2023-02-27T08:52:18.958Z,27.80
2023-02-27T08:57:22.025Z,27.80
2023-02-27T09:02:26.811Z,27.90
2023-02-27T09:07:29.668Z,27.90
2023-02-27T09:12:32.511Z,27.90
2023-02-27T09:17:36.745Z,28.00
2023-02-27T09:22:39.879Z,27.80
2023-02-27T09:27:42.740Z,27.90
2023-02-27T09:32:47.047Z,28.00
2023-02-27T09:37:50.389Z,28.00
2023-02-27T09:42:58.052Z,28.00
2023-02-27T09:48:09.314Z,28.00
2023-02-27T09:53:15.381Z,27.90
2023-02-27T09:58:30.859Z,27.90
2023-02-27T10:03:55.942Z,27.80
2023-02-27T10:09:24.700Z,27.80
2023-02-27T10:14:39.326Z,27.70
2023-02-27T10:19:46.927Z,27.80
2023-02-27T10:24:55.676Z,27.80
2023-02-27T10:30:17.374Z,27.80
2023-02-27T10:35:30.291Z,28.00
2023-02-27T10:40:37.437Z,27.90
2023-02-27T10:45:40.277Z,28.00
2023-02-27T10:50:46.207Z,28.10
2023-02-27T10:55:59.695Z,27.90
2023-02-27T11:01:04.537Z,27.70
2023-02-27T11:06:13.798Z,27.70
2023-02-27T11:11:28.461Z,27.70
2023-02-27T11:16:47.226Z,27.70
2023-02-27T11:22:03.580Z,27.70
2023-02-27T11:27:20.857Z,27.70
2023-02-27T11:32:24.406Z,27.70
2023-02-27T11:37:33.689Z,27.70
2023-02-27T11:42:38.669Z,27.60
2023-02-27T11:47:44.112Z,27.70
2023-02-27T11:52:53.978Z,27.80
2023-02-27T11:58:02.864Z,27.70
2023-02-27T12:03:12.230Z,27.70
2023-02-27T12:08:21.728Z,27.60
2023-02-27T12:13:29.061Z,27.60
2023-02-27T12:18:39.198Z,27.50
2023-02-27T12:23:49.009Z,27.60
2023-02-27T12:28:57.944Z,27.50
2023-02-27T12:34:09.601Z,27.70
2023-02-27T12:39:20.200Z,27.70
2023-02-27T12:44:34.684Z,27.60
2023-02-27T12:49:43.763Z,27.60
2023-02-27T12:54:59.466Z,27.60
2023-02-27T13:00:11.443Z,27.50
2023-02-27T13:05:24.891Z,27.60
2023-02-27T13:10:35.461Z,27.60
2023-02-27T13:15:42.946Z,27.60
2023-02-27T13:20:51.025Z,27.70
2023-02-27T13:25:58.346Z,27.80
2023-02-27T13:31:07.660Z,27.70
2023-02-27T13:36:15.219Z,27.70
2023-02-27T13:41:49.686Z,27.70
2023-02-27T13:46:52.572Z,27.80
2023-02-27T13:51:59.297Z,27.80
2023-02-27T13:57:24.991Z,27.90
2023-02-27T14:02:57.892Z,27.90
2023-02-27T14:08:10.501Z,27.70
2023-02-27T14:14:01.415Z,27.70
2023-02-27T14:19:25.170Z,28.20
2023-02-27T14:24:41.383Z,27.80
2023-02-27T14:29:49.533Z,27.90
2023-02-27T14:34:54.726Z,27.70
2023-02-27T14:40:00.735Z,27.80
2023-02-27T14:45:14.966Z,27.70
2023-02-27T14:50:27.415Z,27.80
2023-02-27T14:55:31.483Z,27.80
2023-02-27T15:00:39.102Z,27.70
2023-02-27T15:05:42.111Z,27.60
2023-02-27T15:10:45.357Z,27.60
2023-02-27T15:15:52.204Z,27.60
2023-02-27T15:20:59.826Z,27.60
2023-02-27T15:26:02.785Z,27.60
2023-02-27T15:31:10.950Z,27.60
2023-02-27T15:36:20.677Z,27.60
2023-02-27T15:41:23.560Z,27.70
2023-02-27T15:46:28.103Z,27.50
2023-02-27T15:51:31.509Z,27.50
2023-02-27T15:56:37.602Z,27.50
2023-02-27T16:01:42.055Z,27.50
2023-02-27T16:06:51.057Z,27.50
2023-02-27T16:12:25.397Z,27.50
2023-02-27T16:17:32.351Z,27.50
2023-02-27T16:22:35.767Z,27.60
2023-02-27T16:27:40.244Z,27.60
2023-02-27T16:32:44.757Z,27.60
2023-02-27T16:37:48.187Z,27.50
2023-02-27T16:42:52.341Z,27.50
2023-02-27T16:47:58.680Z,27.40
2023-02-27T16:53:02.097Z,27.30
2023-02-27T16:58:06.386Z,27.00
2023-02-27T17:03:10.867Z,27.00
2023-02-27T17:08:13.763Z,26.60
2023-02-27T17:13:17.282Z,26.30
2023-02-27T17:18:22.645Z,26.10
2023-02-27T17:23:25.488Z,26.00
2023-02-27T17:28:28.538Z,25.70
2023-02-27T17:33:33.399Z,26.10
2023-02-27T17:38:37.142Z,26.10
2023-02-27T17:43:40.066Z,26.50
2023-02-27T17:48:44.267Z,26.70
2023-02-27T17:53:47.292Z,27.00
2023-02-27T17:58:50.192Z,27.30
2023-02-27T18:03:55.361Z,27.40
2023-02-27T18:08:58.200Z,27.10
2023-02-27T18:14:01.103Z,27.40
2023-02-27T18:19:06.795Z,27.50
2023-02-27T18:24:09.890Z,27.60
2023-02-27T18:29:13.950Z,27.60
2023-02-27T18:34:18.230Z,27.60
2023-02-27T18:39:22.832Z,27.60
2023-02-27T18:44:25.816Z,22.80
2023-02-27T18:49:30.039Z,25.40
2023-02-27T18:54:32.972Z,25.60
2023-02-27T18:59:35.840Z,26.10
2023-02-27T19:04:40.062Z,26.50
2023-02-27T19:09:43.298Z,26.30
2023-02-27T19:14:46.233Z,26.60
2023-02-27T19:19:50.733Z,26.70
2023-02-27T19:24:53.586Z,27.00
2023-02-27T19:29:56.552Z,27.00
2023-02-27T19:35:00.829Z,27.00
2023-02-27T19:40:04.027Z,27.20
2023-02-27T19:45:07.841Z,27.20
2023-02-27T19:50:13.632Z,27.10
2023-02-27T19:55:16.652Z,27.10
2023-02-27T20:00:20.783Z,27.20
2023-02-27T20:05:25.048Z,27.20
2023-02-27T20:10:27.898Z,27.70
2023-02-27T20:15:30.817Z,27.30
2023-02-27T20:20:34.996Z,27.20
2023-02-27T20:25:37.871Z,27.20
2023-02-27T20:30:40.698Z,27.20
2023-02-27T20:35:44.942Z,27.20
2023-02-27T20:40:47.785Z,27.30
2023-02-27T20:45:50.639Z,27.20
2023-02-27T20:50:54.848Z,27.30
2023-02-27T20:55:57.675Z,27.40
2023-02-27T21:01:04.162Z,27.60
2023-02-27T21:06:10.334Z,27.80
2023-02-27T21:11:15.580Z,28.20
2023-02-27T21:16:20.031Z,28.60
2023-02-27T21:21:26.336Z,28.80
2023-02-27T21:26:34.865Z,28.20
2023-02-27T21:31:39.665Z,28.60
2023-02-27T21:36:45.688Z,28.70
2023-02-27T21:41:49.247Z,28.60
2023-02-27T21:46:52.331Z,28.50
2023-02-27T21:51:57.063Z,28.50
2023-02-27T21:57:02.480Z,28.60
2023-02-27T22:02:05.700Z,28.60
2023-02-27T22:07:11.417Z,28.60
2023-02-27T22:12:16.169Z,28.70
2023-02-27T22:17:19.112Z,28.70
2023-02-27T22:22:23.320Z,28.80
2023-02-27T22:27:26.197Z,28.90
2023-02-27T22:32:29.185Z,28.90
2023-02-27T22:37:34.085Z,28.80
2023-02-27T22:42:36.917Z,29.00
2023-02-27T22:47:39.752Z,29.00
2023-02-27T22:52:43.922Z,29.10
2023-02-27T22:57:49.895Z,28.90
2023-02-27T23:02:52.718Z,29.00
2023-02-27T23:07:56.891Z,29.00
2023-02-27T23:12:59.688Z,29.10
2023-02-27T23:18:02.497Z,29.00
2023-02-27T23:23:06.965Z,29.00
2023-02-27T23:28:10.049Z,29.00
2023-02-27T23:33:12.860Z,29.40
2023-02-27T23:38:17.018Z,28.90
2023-02-27T23:43:37.306Z,28.90
2023-02-27T23:48:40.668Z,28.80
2023-02-27T23:53:44.933Z,28.80
2023-02-27T23:58:48.836Z,28.70
